Time;durP1;ratioP1;P1;durP2;ratioP2;P2;SDS_P1;SDS_P2;PMS_P1;PMS_P2;Temp;Humidity;BMP_temperature;BMP_pressure;BME280_temperature;BME280_humidity;BME280_pressure;Samples;Min_cycle;Max_cycle;Signal;HPM_P1;HPM_P2
2023/05/30 00:01:13;;;;;;;16.95;4.90;;;11.80;99.90;;;;;;5054440;28;20101;-75
2023/05/30 00:03:39;;;;;;;15.93;5.13;;;11.90;99.90;;;;;;5055244;28;20931;-74
2023/05/30 00:06:05;;;;;;;15.18;5.00;;;11.90;99.90;;;;;;5057497;28;20045;-71
2023/05/30 00:08:31;;;;;;;20.27;5.13;;;11.90;99.90;;;;;;5052564;28;20036;-71
2023/05/30 00:10:57;;;;;;;17.08;4.80;;;12.00;99.90;;;;;;5042204;28;20040;-71
2023/05/30 00:13:22;;;;;;;16.30;5.13;;;12.00;99.90;;;;;;5044708;28;20524;-71
2023/05/30 00:15:49;;;;;;;21.08;4.95;;;12.00;99.90;;;;;;5042636;28;20126;-73
2023/05/30 00:18:15;;;;;;;13.93;5.30;;;12.10;99.90;;;;;;5054003;28;20040;-73
2023/05/30 00:20:44;;;;;;;15.95;4.70;;;12.10;99.90;;;;;;5045050;28;20064;-72
2023/05/30 00:23:10;;;;;;;16.30;4.95;;;12.10;99.90;;;;;;5048475;28;20051;-73
2023/05/30 00:25:37;;;;;;;12.15;4.30;;;12.00;99.90;;;;;;5061888;28;20102;-71
2023/05/30 00:28:06;;;;;;;18.23;5.07;;;12.00;99.90;;;;;;5066610;28;20056;-71
2023/05/30 00:30:33;;;;;;;20.63;4.70;;;12.00;99.90;;;;;;5066935;28;20096;-71
2023/05/30 00:32:59;;;;;;;16.08;4.57;;;11.90;99.90;;;;;;5054480;28;20040;-72
2023/05/30 00:35:25;;;;;;;15.95;4.75;;;11.90;99.90;;;;;;5048861;28;20403;-72
2023/05/30 00:37:51;;;;;;;13.70;4.22;;;11.80;99.90;;;;;;5063763;28;20048;-72
2023/05/30 00:40:17;;;;;;;17.88;5.20;;;11.80;99.90;;;;;;5054135;28;20044;-71
2023/05/30 00:42:42;;;;;;;14.98;4.65;;;11.80;99.90;;;;;;5056483;28;20054;-72
2023/05/30 00:45:08;;;;;;;14.15;4.47;;;11.80;99.90;;;;;;5055693;28;20044;-72
2023/05/30 00:47:35;;;;;;;14.60;4.80;;;11.80;99.90;;;;;;5056236;28;20538;-72
2023/05/30 00:50:01;;;;;;;11.75;4.80;;;11.80;99.90;;;;;;5046149;28;20044;-71
2023/05/30 00:52:28;;;;;;;13.10;4.60;;;11.80;99.90;;;;;;5050328;28;20058;-72
2023/05/30 00:54:55;;;;;;;12.80;4.75;;;11.80;99.90;;;;;;5055793;28;20060;-72
2023/05/30 00:57:21;;;;;;;13.43;4.65;;;11.70;99.90;;;;;;5065104;28;20040;-70
2023/05/30 00:59:48;;;;;;;13.73;5.00;;;11.70;99.90;;;;;;5058638;28;20049;-72
2023/05/30 01:02:16;;;;;;;14.10;4.90;;;11.70;99.90;;;;;;5057143;28;20513;-72
2023/05/30 01:04:42;;;;;;;13.60;4.35;;;11.60;99.90;;;;;;5055098;28;20057;-71
2023/05/30 01:07:10;;;;;;;15.35;4.63;;;11.70;99.90;;;;;;5071128;28;20416;-71
2023/05/30 01:09:37;;;;;;;14.63;5.38;;;11.60;99.90;;;;;;5048125;28;20563;-71
2023/05/30 01:12:23;;;;;;;15.45;5.30;;;11.60;99.90;;;;;;5057089;28;20056;-71
2023/05/30 01:15:27;;;;;;;14.27;4.75;;;11.60;99.90;;;;;;5069846;28;20052;-72
2023/05/30 01:18:01;;;;;;;13.68;4.80;;;11.70;99.90;;;;;;5038991;28;20064;-71
2023/05/30 01:20:31;;;;;;;14.38;5.45;;;11.60;99.90;;;;;;5054553;28;20040;-72
2023/05/30 01:23:36;;;;;;;15.32;5.30;;;11.60;99.90;;;;;;5066627;28;20104;-72
2023/05/30 01:26:29;;;;;;;15.13;5.03;;;11.60;99.90;;;;;;5047375;28;20131;-71
2023/05/30 01:28:56;;;;;;;16.13;5.47;;;11.60;99.90;;;;;;5053663;28;20154;-73
2023/05/30 01:31:23;;;;;;;14.68;5.13;;;11.60;99.90;;;;;;5061728;28;20185;-71
2023/05/30 01:33:50;;;;;;;22.02;5.22;;;11.60;99.90;;;;;;5044472;28;20052;-71
2023/05/30 01:36:17;;;;;;;14.57;5.40;;;11.60;99.90;;;;;;5049869;28;20037;-72
2023/05/30 01:38:43;;;;;;;13.05;4.88;;;11.60;99.90;;;;;;5056648;28;20487;-72
2023/05/30 01:41:20;;;;;;;13.25;5.05;;;11.60;99.90;;;;;;5047622;28;20044;-71
2023/05/30 01:43:54;;;;;;;17.27;5.85;;;11.60;99.90;;;;;;5063298;28;20134;-71
2023/05/30 01:46:32;;;;;;;13.23;4.80;;;11.60;99.90;;;;;;5050898;28;20052;-72
2023/05/30 01:48:57;;;;;;;19.48;5.40;;;11.60;99.90;;;;;;5047756;28;20114;-72
2023/05/30 01:51:35;;;;;;;15.85;5.38;;;11.60;99.90;;;;;;5047631;28;20043;-72
2023/05/30 01:54:06;;;;;;;14.60;5.20;;;11.60;99.90;;;;;;5060167;28;20055;-72
2023/05/30 01:56:34;;;;;;;16.17;5.40;;;11.60;99.90;;;;;;5053853;28;20047;-73
2023/05/30 01:59:02;;;;;;;13.95;5.35;;;11.60;99.90;;;;;;5039452;28;20053;-73
2023/05/30 02:01:29;;;;;;;15.80;4.72;;;11.60;99.90;;;;;;5063317;28;20045;-73
2023/05/30 02:03:55;;;;;;;15.25;4.43;;;11.60;99.90;;;;;;5055409;28;20049;-73
2023/05/30 02:06:22;;;;;;;14.18;5.00;;;11.60;99.90;;;;;;5053238;28;20143;-72
2023/05/30 02:08:48;;;;;;;11.52;4.90;;;11.60;99.90;;;;;;5046500;28;20040;-73
2023/05/30 02:11:14;;;;;;;15.85;4.93;;;11.60;99.90;;;;;;5058465;28;20125;-73
2023/05/30 02:13:40;;;;;;;13.48;4.60;;;11.50;99.90;;;;;;5067867;28;21227;-73
2023/05/30 02:16:08;;;;;;;14.98;5.40;;;11.50;99.90;;;;;;5057907;28;20052;-73
2023/05/30 02:18:34;;;;;;;19.38;5.35;;;11.50;99.90;;;;;;5054426;28;20051;-73
2023/05/30 02:21:00;;;;;;;13.00;4.70;;;11.50;99.90;;;;;;5047723;28;21059;-73
2023/05/30 02:23:26;;;;;;;12.35;4.80;;;11.50;99.90;;;;;;5052241;28;21705;-74
2023/05/30 02:25:52;;;;;;;15.40;5.05;;;11.50;99.90;;;;;;5055617;28;20491;-72
2023/05/30 02:28:17;;;;;;;14.77;4.40;;;11.50;99.90;;;;;;5047881;28;20040;-73
2023/05/30 02:30:43;;;;;;;15.23;5.57;;;11.50;99.90;;;;;;5055670;28;20044;-72
2023/05/30 02:33:09;;;;;;;13.50;5.47;;;11.50;99.90;;;;;;5066997;28;20043;-73
2023/05/30 02:35:35;;;;;;;20.67;5.80;;;11.40;99.90;;;;;;5052553;28;20498;-73
2023/05/30 02:38:00;;;;;;;14.85;4.65;;;11.50;99.90;;;;;;5049777;28;20041;-72
2023/05/30 02:40:26;;;;;;;15.25;5.32;;;11.50;99.90;;;;;;5050021;28;20114;-72
2023/05/30 02:42:52;;;;;;;18.17;5.55;;;11.50;99.90;;;;;;5063541;28;20051;-73
2023/05/30 02:45:17;;;;;;;13.00;4.90;;;11.50;99.90;;;;;;5057486;28;20111;-72
2023/05/30 02:47:43;;;;;;;14.32;5.50;;;11.50;99.90;;;;;;5062882;28;20503;-74
2023/05/30 02:50:10;;;;;;;15.70;5.50;;;11.50;99.90;;;;;;5064570;28;20040;-74
2023/05/30 02:52:36;;;;;;;14.88;5.78;;;11.50;99.90;;;;;;5056983;28;20044;-73
2023/05/30 02:55:02;;;;;;;14.77;5.45;;;11.50;99.90;;;;;;5070545;28;20092;-73
2023/05/30 02:57:27;;;;;;;17.25;5.78;;;11.50;99.90;;;;;;5056151;28;20056;-73
2023/05/30 02:59:53;;;;;;;16.17;5.30;;;11.50;99.90;;;;;;5046511;28;20481;-73
2023/05/30 03:02:19;;;;;;;12.80;4.78;;;11.50;99.90;;;;;;5074834;28;20052;-73
2023/05/30 03:04:46;;;;;;;16.00;5.60;;;11.50;99.90;;;;;;5054637;28;20147;-74
2023/05/30 03:07:17;;;;;;;16.67;4.53;;;11.40;99.90;;;;;;5070606;28;20036;-72
2023/05/30 03:09:46;;;;;;;14.23;5.72;;;11.40;99.90;;;;;;5052207;28;20116;-74
2023/05/30 03:12:12;;;;;;;13.95;5.15;;;11.40;99.90;;;;;;5054785;28;20045;-74
2023/05/30 03:14:38;;;;;;;15.73;5.75;;;11.40;99.90;;;;;;5052846;28;20053;-73
2023/05/30 03:17:05;;;;;;;13.10;5.25;;;11.40;99.90;;;;;;5051005;28;20394;-74
2023/05/30 03:19:30;;;;;;;13.57;4.50;;;11.40;99.90;;;;;;5045224;28;20124;-74
2023/05/30 03:21:57;;;;;;;14.45;5.80;;;11.40;99.90;;;;;;5054386;28;20053;-74
2023/05/30 03:24:23;;;;;;;19.63;4.97;;;11.40;99.90;;;;;;5058494;28;20044;-73
2023/05/30 03:26:49;;;;;;;17.95;5.00;;;11.50;99.90;;;;;;5064851;28;20044;-73
2023/05/30 03:29:16;;;;;;;16.23;5.45;;;11.50;99.90;;;;;;5058791;28;20075;-73
2023/05/30 03:31:43;;;;;;;12.32;5.15;;;11.50;99.90;;;;;;5063069;28;20072;-72
2023/05/30 03:34:09;;;;;;;12.93;5.45;;;11.50;99.90;;;;;;5063999;28;20048;-73
2023/05/30 03:36:38;;;;;;;13.38;5.18;;;11.50;99.90;;;;;;5072708;28;20055;-72
2023/05/30 03:39:04;;;;;;;13.20;4.90;;;11.50;99.90;;;;;;5045872;28;20047;-72
2023/05/30 03:41:30;;;;;;;13.40;4.72;;;11.50;99.90;;;;;;5055121;28;20044;-73
2023/05/30 03:43:55;;;;;;;12.98;4.47;;;11.50;99.90;;;;;;5068402;28;21420;-72
2023/05/30 03:46:22;;;;;;;12.55;5.10;;;11.50;99.90;;;;;;5057389;28;20248;-72
2023/05/30 03:48:48;;;;;;;15.90;5.30;;;11.50;99.90;;;;;;5069444;28;20175;-73
2023/05/30 03:51:13;;;;;;;13.75;4.68;;;11.50;99.90;;;;;;5048635;28;20599;-73
2023/05/30 03:53:42;;;;;;;11.70;4.57;;;11.50;99.90;;;;;;5048597;28;20112;-73
2023/05/30 03:56:08;;;;;;;14.52;5.20;;;11.50;99.90;;;;;;5053184;28;20051;-73
2023/05/30 03:58:33;;;;;;;14.02;5.20;;;11.50;99.90;;;;;;5048573;28;20048;-72
2023/05/30 04:01:02;;;;;;;10.20;4.40;;;11.50;99.90;;;;;;5061809;28;20086;-72
2023/05/30 04:03:29;;;;;;;13.50;5.28;;;11.50;99.90;;;;;;5055009;28;20056;-73
2023/05/30 04:05:58;;;;;;;10.93;4.88;;;11.50;99.90;;;;;;5048239;28;20051;-73
2023/05/30 04:08:24;;;;;;;13.07;4.80;;;11.50;99.90;;;;;;5056382;28;20048;-73
2023/05/30 04:10:50;;;;;;;15.40;5.47;;;11.60;99.90;;;;;;5055269;28;20048;-72
2023/05/30 04:13:15;;;;;;;13.60;4.93;;;11.60;99.90;;;;;;5055534;28;20051;-73
2023/05/30 04:15:41;;;;;;;13.57;4.50;;;11.60;99.90;;;;;;5054588;28;20048;-73
2023/05/30 04:18:07;;;;;;;12.48;5.00;;;11.60;99.90;;;;;;5065342;28;20056;-72
2023/05/30 04:20:34;;;;;;;14.73;5.00;;;11.60;99.90;;;;;;5051952;28;20052;-73
2023/05/30 04:22:59;;;;;;;19.67;5.78;;;11.70;99.90;;;;;;5053137;28;20074;-72
2023/05/30 04:25:25;;;;;;;11.70;4.32;;;11.60;99.90;;;;;;5042729;28;20117;-72
2023/05/30 04:27:54;;;;;;;14.38;5.18;;;11.70;99.90;;;;;;5056251;28;20084;-72
2023/05/30 04:30:20;;;;;;;14.13;5.43;;;11.70;99.90;;;;;;5056865;28;20044;-71
2023/05/30 04:32:46;;;;;;;16.33;5.13;;;11.70;99.90;;;;;;5066683;28;20079;-71
2023/05/30 04:35:13;;;;;;;13.02;5.13;;;11.70;99.90;;;;;;5059172;28;20147;-71
2023/05/30 04:37:43;;;;;;;11.38;4.10;;;11.80;99.90;;;;;;5059110;28;20048;-71
2023/05/30 04:40:13;;;;;;;15.98;5.20;;;11.80;99.90;;;;;;5057305;28;20044;-71
2023/05/30 04:42:40;;;;;;;16.55;4.80;;;11.80;99.90;;;;;;5043282;28;20044;-71
2023/05/30 04:45:07;;;;;;;18.85;5.13;;;11.90;99.90;;;;;;5060403;28;20056;-71
2023/05/30 04:47:33;;;;;;;15.13;4.88;;;11.90;99.90;;;;;;5059218;28;20052;-70
2023/05/30 04:50:09;;;;;;;14.07;4.85;;;11.90;99.90;;;;;;5070111;28;20098;-71
2023/05/30 04:52:35;;;;;;;13.93;4.68;;;11.90;99.90;;;;;;5053130;28;20531;-71
2023/05/30 04:55:00;;;;;;;16.02;4.97;;;12.00;99.90;;;;;;5047288;28;20040;-71
2023/05/30 04:57:26;;;;;;;15.68;4.10;;;12.00;99.90;;;;;;5067379;28;20118;-71
2023/05/30 04:59:55;;;;;;;13.85;4.80;;;12.00;99.90;;;;;;5052723;28;21966;-70
2023/05/30 05:02:21;;;;;;;15.13;4.78;;;12.00;99.90;;;;;;5055026;28;20045;-70
2023/05/30 05:04:47;;;;;;;12.25;4.82;;;12.00;99.90;;;;;;5052655;28;20053;-70
2023/05/30 05:07:12;;;;;;;15.30;4.57;;;12.00;99.90;;;;;;5062644;28;20102;-71
2023/05/30 05:09:38;;;;;;;11.43;4.28;;;12.00;99.90;;;;;;5052217;28;20048;-73
2023/05/30 05:12:04;;;;;;;15.07;5.13;;;12.00;99.90;;;;;;5061169;28;20041;-70
2023/05/30 05:14:30;;;;;;;14.25;5.07;;;12.00;99.90;;;;;;5059503;28;20095;-71
2023/05/30 05:16:57;;;;;;;21.30;6.20;;;12.10;99.90;;;;;;5053790;28;20083;-71
2023/05/30 05:19:22;;;;;;;14.68;5.25;;;12.10;99.90;;;;;;5049597;28;20044;-71
2023/05/30 05:21:48;;;;;;;14.55;5.50;;;12.20;99.90;;;;;;5050706;28;20098;-71
2023/05/30 05:24:14;;;;;;;16.85;4.78;;;12.20;99.90;;;;;;5067227;28;20413;-71
2023/05/30 05:26:39;;;;;;;15.05;4.95;;;12.20;99.90;;;;;;5069934;28;20047;-71
2023/05/30 05:29:05;;;;;;;14.35;4.57;;;12.20;99.90;;;;;;5061507;28;20138;-71
2023/05/30 05:31:33;;;;;;;18.60;5.13;;;12.10;99.90;;;;;;5051166;28;20087;-71
2023/05/30 05:33:58;;;;;;;;;;;12.10;99.90;;;;;;5055924;28;20063;-71
2023/05/30 05:36:24;;;;;;;13.80;4.32;;;12.10;99.90;;;;;;5054633;28;19928;-71
2023/05/30 05:38:50;;;;;;;14.80;5.00;;;12.20;99.90;;;;;;5062838;28;20048;-71
2023/05/30 05:41:16;;;;;;;15.23;5.15;;;12.20;99.90;;;;;;5067160;28;20052;-70
2023/05/30 05:43:41;;;;;;;14.45;5.32;;;12.20;99.90;;;;;;5065312;28;20047;-71
2023/05/30 05:46:10;;;;;;;16.88;4.78;;;12.30;99.90;;;;;;5061446;28;20044;-71
2023/05/30 05:48:35;;;;;;;14.18;4.80;;;12.30;99.90;;;;;;5043196;28;20091;-71
2023/05/30 05:51:01;;;;;;;15.30;4.85;;;12.30;99.90;;;;;;5051873;28;20067;-71
2023/05/30 05:53:27;;;;;;;15.52;4.47;;;12.40;99.90;;;;;;5060865;28;20130;-71
2023/05/30 05:55:52;;;;;;;12.98;4.28;;;12.40;99.90;;;;;;5062312;28;20045;-71
2023/05/30 05:58:18;;;;;;;11.73;4.13;;;12.50;99.90;;;;;;5061110;28;20463;-72
2023/05/30 06:00:44;;;;;;;15.40;4.63;;;12.50;99.90;;;;;;5052346;28;21132;-72
2023/05/30 06:03:09;;;;;;;19.08;4.68;;;12.50;99.90;;;;;;5048320;28;21086;-72
2023/05/30 06:05:35;;;;;;;15.48;4.57;;;12.60;99.90;;;;;;5051675;28;20048;-70
2023/05/30 06:08:01;;;;;;;13.57;4.22;;;12.70;99.90;;;;;;5054137;28;20047;-71
2023/05/30 06:10:27;;;;;;;11.30;3.95;;;12.70;99.90;;;;;;5044934;28;20040;-71
2023/05/30 06:12:53;;;;;;;11.80;4.05;;;12.70;99.90;;;;;;5052824;28;20051;-71
2023/05/30 06:15:19;;;;;;;10.43;3.60;;;12.70;99.90;;;;;;5063430;28;20047;-71
2023/05/30 06:17:48;;;;;;;13.20;4.20;;;12.70;99.90;;;;;;5054352;28;20044;-71
2023/05/30 06:20:14;;;;;;;11.10;3.95;;;12.70;99.90;;;;;;5042106;28;20180;-71
2023/05/30 06:22:39;;;;;;;11.85;3.97;;;12.70;99.90;;;;;;5053386;28;20064;-70
2023/05/30 06:25:06;;;;;;;12.98;4.10;;;12.70;99.90;;;;;;5052937;28;20047;-71
2023/05/30 06:27:31;;;;;;;10.82;4.18;;;12.70;99.90;;;;;;5058528;28;20526;-71
2023/05/30 06:29:57;;;;;;;11.15;3.88;;;12.70;99.90;;;;;;5055248;28;20041;-71
2023/05/30 06:32:23;;;;;;;11.80;4.30;;;12.80;99.90;;;;;;5058092;28;20049;-72
2023/05/30 06:34:48;;;;;;;8.25;3.30;;;12.80;99.90;;;;;;5065366;28;20101;-71
2023/05/30 06:37:15;;;;;;;10.60;3.67;;;12.80;99.90;;;;;;5060150;28;20609;-71
2023/05/30 06:39:40;;;;;;;10.10;3.75;;;12.80;99.90;;;;;;5048272;28;20406;-71
2023/05/30 06:42:10;;;;;;;10.63;3.80;;;12.80;99.90;;;;;;5053566;28;20041;-71
2023/05/30 06:44:36;;;;;;;9.10;3.25;;;12.80;99.90;;;;;;5057151;28;20066;-72
2023/05/30 06:47:02;;;;;;;8.75;3.40;;;12.80;99.90;;;;;;5057850;28;20497;-72
2023/05/30 06:49:28;;;;;;;9.63;3.63;;;12.80;99.90;;;;;;5058213;28;20044;-70
2023/05/30 06:51:54;;;;;;;10.43;3.53;;;12.80;99.90;;;;;;5044813;28;20518;-71
2023/05/30 06:54:20;;;;;;;11.50;3.30;;;12.80;99.90;;;;;;5059393;28;20044;-71
2023/05/30 06:56:47;;;;;;;9.20;3.30;;;12.80;99.90;;;;;;5049799;28;20059;-72
2023/05/30 06:59:12;;;;;;;10.67;3.60;;;12.80;99.90;;;;;;5040158;28;20044;-73
2023/05/30 07:01:38;;;;;;;11.25;3.60;;;12.80;99.90;;;;;;5048263;28;20029;-71
2023/05/30 07:04:04;;;;;;;9.77;3.60;;;12.80;99.90;;;;;;5033593;28;20064;-73
2023/05/30 07:06:30;;;;;;;11.57;3.40;;;12.80;99.90;;;;;;5040626;28;20159;-72
2023/05/30 07:08:56;;;;;;;9.07;3.80;;;12.80;99.90;;;;;;5041045;28;20400;-71
2023/05/30 07:11:22;;;;;;;10.48;3.47;;;12.70;99.90;;;;;;5033521;28;20052;-71
2023/05/30 07:13:47;;;;;;;11.40;3.85;;;12.80;99.90;;;;;;5037053;28;20049;-73
2023/05/30 07:16:13;;;;;;;12.23;3.78;;;12.70;99.90;;;;;;5049044;28;20041;-71
2023/05/30 07:18:39;;;;;;;10.50;3.63;;;12.80;99.90;;;;;;5046492;28;20059;-70
2023/05/30 07:21:05;;;;;;;11.77;3.65;;;12.80;99.90;;;;;;5058960;28;20041;-70
2023/05/30 07:23:31;;;;;;;10.38;4.20;;;12.90;99.90;;;;;;5068079;28;20091;-73
2023/05/30 07:25:56;;;;;;;12.13;4.38;;;12.90;99.90;;;;;;5054333;28;20514;-72
2023/05/30 07:28:25;;;;;;;11.60;3.60;;;12.90;99.90;;;;;;5050948;28;20052;-72
2023/05/30 07:30:51;;;;;;;8.48;3.30;;;12.90;99.90;;;;;;5043259;28;20056;-71
2023/05/30 07:33:16;;;;;;;9.57;3.75;;;13.00;99.90;;;;;;5036514;28;20037;-71
2023/05/30 07:35:42;;;;;;;9.88;3.22;;;13.00;99.90;;;;;;5041189;28;21839;-73
2023/05/30 07:38:08;;;;;;;10.00;3.53;;;13.10;99.90;;;;;;5055621;28;20040;-73
2023/05/30 07:40:34;;;;;;;8.10;3.75;;;13.10;99.90;;;;;;5055467;28;20056;-72
2023/05/30 07:43:00;;;;;;;10.07;3.40;;;13.10;99.90;;;;;;5049027;28;20048;-73
2023/05/30 07:45:25;;;;;;;8.70;3.65;;;13.10;99.90;;;;;;5057593;28;20048;-72
2023/05/30 07:47:51;;;;;;;9.07;3.28;;;13.10;99.90;;;;;;5044076;28;20051;-72
2023/05/30 07:50:17;;;;;;;7.03;2.55;;;13.10;99.90;;;;;;5043496;28;20076;-73
2023/05/30 07:52:42;;;;;;;6.97;2.90;;;13.10;99.90;;;;;;5045929;28;20499;-74
2023/05/30 07:55:11;;;;;;;7.70;3.00;;;13.10;99.90;;;;;;5064495;28;20126;-73
2023/05/30 07:57:40;;;;;;;5.32;2.53;;;13.10;99.90;;;;;;5043997;28;20048;-73
2023/05/30 08:00:08;;;;;;;6.50;2.75;;;13.10;99.90;;;;;;5054619;28;20098;-73
2023/05/30 08:02:37;;;;;;;5.05;2.60;;;13.10;99.90;;;;;;5038990;28;20052;-77
2023/05/30 08:05:03;;;;;;;6.50;3.10;;;13.20;99.90;;;;;;5066947;28;20074;-73
2023/05/30 08:07:30;;;;;;;8.48;3.10;;;13.20;99.90;;;;;;5039409;28;20079;-73
2023/05/30 08:09:57;;;;;;;7.53;2.80;;;13.30;99.90;;;;;;5045014;28;20135;-73
2023/05/30 08:12:29;;;;;;;7.82;2.97;;;13.30;99.90;;;;;;5044720;28;20036;-73
2023/05/30 08:14:56;;;;;;;6.40;2.65;;;13.30;99.90;;;;;;5048090;28;20571;-73
2023/05/30 08:17:24;;;;;;;7.15;2.85;;;13.30;99.90;;;;;;5035619;28;20094;-74
2023/05/30 08:19:52;;;;;;;7.07;2.78;;;13.20;99.90;;;;;;5043334;28;20187;-72
2023/05/30 08:22:21;;;;;;;6.82;2.97;;;13.30;99.90;;;;;;5057158;28;20062;-74
2023/05/30 08:24:54;;;;;;;7.63;2.83;;;13.20;99.90;;;;;;5059716;28;20080;-72
2023/05/30 08:27:21;;;;;;;8.15;3.72;;;13.20;99.90;;;;;;5041959;28;20392;-72
2023/05/30 08:29:50;;;;;;;7.05;3.58;;;13.20;99.90;;;;;;5045932;28;20044;-70
2023/05/30 08:32:19;;;;;;;7.68;3.78;;;13.20;99.90;;;;;;5042854;28;20450;-72
2023/05/30 08:34:46;;;;;;;11.05;4.28;;;13.30;99.90;;;;;;5038248;28;20462;-74
2023/05/30 08:37:12;;;;;;;7.88;3.42;;;13.20;99.90;;;;;;5055391;28;20177;-74
2023/05/30 08:39:38;;;;;;;9.43;4.15;;;13.20;99.90;;;;;;5064234;28;20111;-73
2023/05/30 08:42:05;;;;;;;10.00;3.70;;;13.30;99.90;;;;;;5045474;28;20044;-72
2023/05/30 08:44:31;;;;;;;9.67;3.50;;;13.30;99.90;;;;;;5038722;28;20046;-72
2023/05/30 08:46:57;;;;;;;8.20;3.70;;;13.30;99.90;;;;;;5064361;28;20051;-73
2023/05/30 08:49:24;;;;;;;8.93;4.10;;;13.30;99.90;;;;;;5058992;28;20115;-71
2023/05/30 08:51:52;;;;;;;8.88;3.95;;;13.30;99.90;;;;;;5044342;28;20049;-71
2023/05/30 08:54:22;;;;;;;12.73;4.00;;;13.30;99.90;;;;;;5048330;28;20055;-71
2023/05/30 08:57:12;;;;;;;12.63;4.10;;;13.30;99.90;;;;;;5062106;28;20049;-71
2023/05/30 08:59:39;;;;;;;11.25;4.60;;;13.30;99.90;;;;;;5060914;28;20363;-72
2023/05/30 09:02:07;;;;;;;7.40;3.78;;;13.30;99.90;;;;;;5060394;28;20106;-70
2023/05/30 09:04:34;;;;;;;10.48;3.85;;;13.30;99.90;;;;;;5044738;28;20060;-70
2023/05/30 09:07:02;;;;;;;11.13;4.22;;;13.40;99.90;;;;;;5056828;28;20037;-72
2023/05/30 09:09:29;;;;;;;10.90;4.00;;;13.40;99.90;;;;;;5049548;28;20649;-72
2023/05/30 09:11:54;;;;;;;8.43;4.20;;;13.50;99.90;;;;;;5048257;28;20090;-73
2023/05/30 09:14:21;;;;;;;5.90;4.10;;;13.50;99.90;;;;;;5052027;28;20109;-73
2023/05/30 09:16:47;;;;;;;9.38;4.28;;;13.50;99.90;;;;;;5050702;28;20119;-74
2023/05/30 09:19:13;;;;;;;12.85;4.57;;;13.50;99.90;;;;;;5035329;28;20484;-72
2023/05/30 09:21:39;;;;;;;13.25;5.28;;;13.50;99.90;;;;;;5054050;28;20048;-74
2023/05/30 09:24:05;;;;;;;12.68;4.63;;;13.50;99.90;;;;;;5041637;28;20419;-74
2023/05/30 09:26:33;;;;;;;10.55;4.72;;;13.50;99.90;;;;;;5044634;28;20044;-73
2023/05/30 09:29:08;;;;;;;20.80;5.38;;;13.50;99.90;;;;;;5058581;28;20130;-71
2023/05/30 09:31:35;;;;;;;9.88;4.80;;;13.60;99.90;;;;;;5053520;28;20400;-71
2023/05/30 09:34:02;;;;;;;10.45;4.00;;;13.60;99.90;;;;;;5050270;28;20131;-73
2023/05/30 09:36:28;;;;;;;9.23;4.45;;;13.50;99.90;;;;;;5051145;28;20044;-72
2023/05/30 09:38:55;;;;;;;8.82;3.72;;;13.60;99.90;;;;;;5047858;28;20040;-72
2023/05/30 09:41:22;;;;;;;7.95;4.15;;;13.50;99.90;;;;;;5038845;28;20037;-72
2023/05/30 09:43:53;;;;;;;7.15;3.78;;;13.60;99.90;;;;;;5046880;28;20044;-70
2023/05/30 09:46:19;;;;;;;8.52;3.67;;;13.60;99.90;;;;;;5067003;28;20061;-71
2023/05/30 09:48:45;;;;;;;8.88;3.97;;;13.50;99.90;;;;;;5059583;28;20048;-71
2023/05/30 09:51:11;;;;;;;6.30;3.65;;;13.60;99.90;;;;;;5038107;28;20523;-72
2023/05/30 09:53:37;;;;;;;10.15;3.80;;;13.50;99.90;;;;;;5036697;28;20098;-72
2023/05/30 09:56:03;;;;;;;5.10;3.58;;;13.60;99.90;;;;;;5037840;28;20103;-71
2023/05/30 09:58:29;;;;;;;8.55;3.83;;;13.60;99.90;;;;;;5039571;28;20040;-70
2023/05/30 10:00:56;;;;;;;8.23;4.00;;;13.60;99.90;;;;;;5047083;28;20209;-72
2023/05/30 10:03:42;;;;;;;9.05;4.55;;;13.50;99.90;;;;;;5046901;28;20113;-70
2023/05/30 10:06:15;;;;;;;7.47;4.50;;;13.50;99.90;;;;;;5033460;28;20064;-70
2023/05/30 10:08:46;;;;;;;7.43;4.00;;;13.50;99.90;;;;;;5032230;28;20472;-72
2023/05/30 10:11:15;;;;;;;5.95;3.90;;;13.50;99.90;;;;;;5049100;28;20045;-71
2023/05/30 10:13:41;;;;;;;7.68;4.10;;;13.50;99.90;;;;;;5047686;28;20119;-72
2023/05/30 10:16:13;;;;;;;8.48;3.88;;;13.50;99.90;;;;;;5049518;28;20564;-70
2023/05/30 10:18:43;;;;;;;7.40;4.18;;;13.50;99.90;;;;;;5036401;28;20040;-71
2023/05/30 10:21:14;;;;;;;7.88;4.60;;;13.60;99.90;;;;;;5037406;28;20049;-72
2023/05/30 10:23:41;;;;;;;8.90;4.28;;;13.70;99.90;;;;;;5061153;28;20040;-74
2023/05/30 10:26:11;;;;;;;6.57;4.00;;;13.70;99.90;;;;;;5063824;28;20104;-73
2023/05/30 10:28:43;;;;;;;8.20;3.67;;;13.70;99.90;;;;;;5048262;28;20082;-73
2023/05/30 10:31:11;;;;;;;7.30;4.07;;;13.70;99.90;;;;;;5053525;28;20051;-74
2023/05/30 10:33:39;;;;;;;5.50;3.13;;;13.70;99.90;;;;;;5058911;28;20040;-75
2023/05/30 10:36:06;;;;;;;4.90;2.53;;;13.70;99.90;;;;;;5047622;28;20033;-73
2023/05/30 10:38:39;;;;;;;3.75;2.60;;;13.70;99.90;;;;;;5036116;28;20048;-70
2023/05/30 10:41:16;;;;;;;5.55;2.38;;;13.70;99.90;;;;;;5044898;28;20043;-71
2023/05/30 10:44:07;;;;;;;5.28;2.72;;;13.70;99.90;;;;;;5047284;28;20083;-72
2023/05/30 10:46:42;;;;;;;3.90;2.47;;;13.70;99.90;;;;;;5044257;28;20053;-74
2023/05/30 10:49:14;;;;;;;4.45;2.63;;;13.80;99.90;;;;;;5043381;28;20415;-73
2023/05/30 10:52:02;;;;;;;4.15;2.60;;;13.90;99.90;;;;;;5046362;28;20433;-69
2023/05/30 10:54:30;;;;;;;6.75;3.30;;;14.10;99.90;;;;;;5046731;28;20391;-70
2023/05/30 10:56:58;;;;;;;4.20;2.80;;;14.10;99.90;;;;;;5046654;28;20056;-70
2023/05/30 10:59:24;;;;;;;;;;;14.20;99.90;;;;;;5047512;28;20044;-70
2023/05/30 11:02:02;;;;;;;6.72;3.00;;;14.20;99.90;;;;;;5034917;28;19925;-71
2023/05/30 11:04:37;;;;;;;3.75;2.78;;;14.30;99.90;;;;;;5060109;28;20052;-72
2023/05/30 11:07:05;;;;;;;3.92;2.50;;;14.30;99.90;;;;;;5035123;28;20065;-70
2023/05/30 11:09:32;;;;;;;3.35;2.40;;;14.40;99.90;;;;;;5036468;28;20053;-71
2023/05/30 11:11:59;;;;;;;3.85;2.90;;;14.40;99.90;;;;;;5039179;28;20053;-73
2023/05/30 11:14:26;;;;;;;;;;;14.40;99.90;;;;;;5052878;28;20997;-72
2023/05/30 11:16:56;;;;;;;2.90;2.40;;;14.40;99.90;;;;;;5054567;28;19925;-73
2023/05/30 11:19:42;;;;;;;4.75;2.67;;;14.40;99.90;;;;;;5059474;28;20040;-70
2023/05/30 11:22:13;;;;;;;3.17;2.40;;;14.50;99.90;;;;;;5051116;28;20083;-73
2023/05/30 11:24:43;;;;;;;3.45;2.47;;;14.50;99.90;;;;;;5067000;28;20051;-71
2023/05/30 11:27:14;;;;;;;4.03;2.70;;;14.50;99.90;;;;;;5064712;28;20052;-70
2023/05/30 11:29:47;;;;;;;5.90;2.78;;;14.60;99.90;;;;;;5041381;28;20049;-69
2023/05/30 11:32:17;;;;;;;4.15;2.10;;;14.60;99.90;;;;;;5060390;28;20519;-71
2023/05/30 11:34:43;;;;;;;4.13;1.98;;;14.70;99.90;;;;;;5065041;28;20505;-71
2023/05/30 11:37:10;;;;;;;3.58;1.92;;;14.70;99.90;;;;;;5048758;28;20048;-72
2023/05/30 11:39:37;;;;;;;2.00;1.90;;;14.70;99.90;;;;;;5040793;28;20051;-73
2023/05/30 11:42:08;;;;;;;2.42;1.83;;;14.80;99.90;;;;;;5059377;28;20181;-71
2023/05/30 11:44:34;;;;;;;5.43;2.28;;;14.80;99.90;;;;;;5045635;28;20037;-72
2023/05/30 11:47:07;;;;;;;5.93;2.63;;;14.90;99.90;;;;;;5045730;28;20101;-74
2023/05/30 11:49:33;;;;;;;5.47;2.42;;;14.90;99.90;;;;;;5053270;28;20044;-73
2023/05/30 11:51:59;;;;;;;3.47;2.20;;;14.90;99.90;;;;;;5045841;28;20570;-69
2023/05/30 11:54:27;;;;;;;4.30;2.30;;;14.90;99.90;;;;;;5058375;28;21169;-69
2023/05/30 11:56:57;;;;;;;3.15;2.10;;;14.90;99.90;;;;;;5048231;28;20051;-70
2023/05/30 11:59:25;;;;;;;3.88;2.38;;;14.90;99.90;;;;;;5063267;28;20043;-71
2023/05/30 12:01:58;;;;;;;5.22;2.40;;;14.90;99.90;;;;;;5045120;28;20068;-71
2023/05/30 12:04:37;;;;;;;3.47;2.28;;;14.80;99.90;;;;;;5044936;28;20140;-71
2023/05/30 12:07:05;;;;;;;2.33;2.00;;;14.80;99.90;;;;;;5041632;28;20040;-72
2023/05/30 12:09:41;;;;;;;3.10;2.38;;;14.80;99.90;;;;;;5057074;28;20059;-74
2023/05/30 12:12:08;;;;;;;4.43;3.33;;;14.90;99.90;;;;;;5053352;28;20052;-73
2023/05/30 12:14:47;;;;;;;8.63;3.33;;;14.80;99.90;;;;;;5054558;28;20069;-73
2023/05/30 12:17:16;;;;;;;2.47;2.22;;;14.90;99.90;;;;;;5045442;28;20056;-72
2023/05/30 12:19:42;;;;;;;4.13;2.67;;;14.80;99.90;;;;;;5051370;28;20048;-74
2023/05/30 12:22:09;;;;;;;4.25;2.40;;;14.80;99.90;;;;;;5046910;28;20048;-73
2023/05/30 12:24:38;;;;;;;3.23;2.60;;;14.80;99.90;;;;;;5058092;28;20055;-73
2023/05/30 12:27:16;;;;;;;3.97;2.60;;;14.80;99.90;;;;;;5056649;28;20290;-73
2023/05/30 12:29:42;;;;;;;3.92;2.33;;;14.80;99.90;;;;;;5057052;28;20126;-73
2023/05/30 12:32:08;;;;;;;4.10;2.58;;;14.80;99.90;;;;;;5045220;28;20076;-73
2023/05/30 12:34:46;;;;;;;7.22;2.75;;;14.80;99.90;;;;;;5040135;28;20132;-72
2023/05/30 12:37:17;;;;;;;6.97;3.42;;;14.90;99.90;;;;;;5050190;28;21579;-72
2023/05/30 12:39:49;;;;;;;4.15;2.72;;;14.90;99.90;;;;;;5054662;28;20040;-73
2023/05/30 12:42:27;;;;;;;3.42;2.60;;;14.90;99.90;;;;;;5059033;28;20041;-71
2023/05/30 12:45:19;;;;;;;3.80;2.60;;;14.90;99.90;;;;;;5045811;28;20135;-73